Afton, California
Current Conditions -  °F | °C
As of 8:53 PM on Saturday 25 Oct 2014 (Local Time) from KOVE Reporting Station
Clear Clear  
Wind Chill: 16°   Ceiling: Unl
Heat Index: 16°   Visibility: 10mi
Dew Point: 12°   Wind: 10mph
Humidity: 80%   Direction: 130°SE
Pressure: 30.06"   Gusts: NA
Location:  39.4608°N, 121.937°W
Report Text: KOVE 260353Z AUTO 13009KT 10SM CLR 16/12 A3006 RMK AO2 SLP180 T01560122
Loading
Personal Weather Stations






























Interactive Weather Map
Tropical Storm Tracking
New forecast layout! Learn more

10-Day Weather Forecast

Advertisements
Track Severe Weather on mobile